Hlavní strana
METAR-TAF:

METAR-TAF

Letiště :

Ålesund, Norsko

zeměpisná šířka: 62-34N, zeměpisná délka: 006-07E, výška: 2 m

Aktuální stav počasí

Zpráva byla vytvořena před 26 minutami, v 18:20 UTC
Jižní vítr 7 kt
Teplota 0°C
Vlhkost vzduchu 93%
Tlak 1009 hPa
Viditelnost: 9000 m
Skoro jasno ve výšce 500 ft
Polojasno ve výšce 1900 ft
Oblačno až skoro zataženo ve výšce 3300 ft
slabé sněhové přeháňky

METAR: ENAL 181820Z 18007KT 9000 -SHSN FEW005 SCT019 BKN033 00/M01 Q1009

Čas: 19:46 (18:46 UTC)

Předpověď počasí

Zpráva byla vytvořena před 1 hodinou a 46 minutami, v 17:00 UTC
Předpověď platná od 18 v 18 UTC do 18 v 23 UTC
Jihojihozápadní vítr 10 kt
Viditelnost 10 km a více
Skoro jasno ve výšce 1000 ft
Oblačno až skoro zataženo ve výšce 1500 ft
slabé sněžení
Dočasný
od 18 v 18 UTC do 18 v 23 UTC
Jihojihozápadní vítr 15 kt s nárazy do 25 kt
Viditelnost: 0700 m
ve výšce 400 ft
sníh

TAF: ENAL 181700Z 1818/1823 20010KT 9999 -SN FEW010 BKN015 TEMPO 1818/1823 21015G25KT 0700 SN VV004

Stav a předpovědi počasí z více než 4 000 letišť (zprávy METAR a TAF).

Červené a žluté tečky na mapě představují dostupné meteorologické stanice.

Když kurzor umístíte na tečku, zobrazí se název stanice.

Pak kliknutím zobrazíte stav a předpověď počasí.

Chcete-li změnit mapu, kliknutím na zelené tlačítko se znaménkem +mapu přiblížíte, kliknutím na zelené tlačítko se znaménkem – mapu oddálíte a kliknutím na zelené šipky přejdete na sousední mapy.


METAR-TAF: